createdAt,value
2023-04-12T00:03:20.342Z,9.00
2023-04-12T00:05:48.437Z,9.00
2023-04-12T00:11:06.786Z,9.00
2023-04-12T00:13:43.978Z,9.00
2023-04-12T00:16:43.279Z,8.90
2023-04-12T00:19:49.914Z,9.00
2023-04-12T00:31:11.712Z,9.10
2023-04-12T00:51:33.492Z,9.00
2023-04-12T00:54:01.713Z,8.80
2023-04-12T00:56:30.154Z,8.90
2023-04-12T00:58:58.176Z,8.90
2023-04-12T01:01:25.789Z,8.90
2023-04-12T01:03:54.795Z,9.00
2023-04-12T01:06:39.040Z,8.90
2023-04-12T01:09:30.472Z,9.00
2023-04-12T01:12:22.818Z,8.90
2023-04-12T01:14:55.308Z,9.00
2023-04-12T01:17:27.639Z,9.00
2023-04-12T01:20:17.144Z,8.90
2023-04-12T01:23:23.273Z,8.90
2023-04-12T01:26:34.788Z,8.90
2023-04-12T01:29:07.778Z,9.00
2023-04-12T01:31:56.101Z,8.90
2023-04-12T01:34:58.304Z,8.90
2023-04-12T01:37:48.613Z,8.90
2023-04-12T01:40:25.756Z,8.90
2023-04-12T01:46:30.769Z,8.90
2023-04-12T01:52:22.620Z,8.80
2023-04-12T01:58:02.687Z,8.70
2023-04-12T02:03:46.358Z,10.10
2023-04-12T02:06:47.074Z,8.70
2023-04-12T02:09:32.673Z,8.70
2023-04-12T02:12:27.215Z,8.90
2023-04-12T02:15:14.341Z,8.70
2023-04-12T02:17:54.345Z,8.70
2023-04-12T02:20:38.889Z,8.70
2023-04-12T02:23:18.555Z,8.70
2023-04-12T02:26:44.399Z,8.60
2023-04-12T02:29:29.338Z,8.50
2023-04-12T02:32:12.893Z,8.40
2023-04-12T02:38:15.776Z,8.70
2023-04-12T02:40:53.003Z,8.50
2023-04-12T02:43:23.935Z,8.50
2023-04-12T02:46:01.819Z,8.60
2023-04-12T02:56:52.762Z,8.60
2023-04-12T03:01:37.501Z,8.60
2023-04-12T03:03:09.877Z,9.60
2023-04-12T03:05:38.216Z,8.70
2023-04-12T03:08:53.341Z,8.70
2023-04-12T03:11:24.132Z,8.70
2023-04-12T03:13:52.515Z,8.60
2023-04-12T03:16:25.585Z,8.70
2023-04-12T03:18:53.014Z,8.60
2023-04-12T03:21:20.750Z,8.60
2023-04-12T03:23:48.044Z,8.60
2023-04-12T03:26:15.531Z,8.60
2023-04-12T03:28:43.130Z,8.60
2023-04-12T03:31:10.808Z,8.60
2023-04-12T03:33:38.825Z,8.60
2023-04-12T03:36:07.440Z,8.50
2023-04-12T03:38:34.779Z,8.50
2023-04-12T03:41:02.261Z,8.50
2023-04-12T03:43:35.896Z,8.50
2023-04-12T03:46:04.582Z,8.40
2023-04-12T03:48:32.395Z,8.40
2023-04-12T03:50:59.863Z,8.40
2023-04-12T03:53:27.426Z,8.40
2023-04-12T03:55:54.956Z,8.30
2023-04-12T03:58:28.774Z,8.40
2023-04-12T04:01:27.687Z,8.30
2023-04-12T04:04:22.251Z,8.30
2023-04-12T04:07:44.661Z,8.60
2023-04-12T04:13:28.531Z,8.20
2023-04-12T04:16:10.971Z,8.20
2023-04-12T04:18:52.036Z,8.20
2023-04-12T04:24:26.993Z,8.10
2023-04-12T04:26:58.888Z,8.10
2023-04-12T04:32:42.502Z,8.00
2023-04-12T04:35:20.813Z,7.90
2023-04-12T04:38:08.475Z,7.90
2023-04-12T04:40:38.965Z,7.80
2023-04-12T04:43:08.233Z,7.80
2023-04-12T04:45:36.571Z,8.30
2023-04-12T04:48:04.148Z,7.80
2023-04-12T04:50:31.807Z,7.70
2023-04-12T04:53:34.220Z,7.60
2023-04-12T04:56:30.946Z,7.50
2023-04-12T04:59:03.950Z,7.40
2023-04-12T05:01:44.487Z,7.40
2023-04-12T05:04:29.447Z,7.40
2023-04-12T05:07:07.998Z,7.40
2023-04-12T05:09:43.826Z,7.40
2023-04-12T05:12:13.794Z,7.40
2023-04-12T05:17:52.675Z,7.30
2023-04-12T05:20:58.080Z,7.30
2023-04-12T05:23:32.957Z,7.30
2023-04-12T05:26:28.057Z,7.20
2023-04-12T05:29:15.384Z,7.20
2023-04-12T05:32:14.288Z,7.20
2023-04-12T05:34:49.892Z,7.10
2023-04-12T05:37:20.110Z,7.00
2023-04-12T05:39:49.952Z,7.00
2023-04-12T05:42:17.438Z,7.10
2023-04-12T05:44:46.528Z,7.00
2023-04-12T05:47:14.815Z,7.10
2023-04-12T05:49:42.112Z,7.00
2023-04-12T05:52:09.376Z,7.00
2023-04-12T05:54:36.711Z,7.00
2023-04-12T05:57:04.064Z,6.90
2023-04-12T05:59:31.536Z,8.20
2023-04-12T06:01:59.348Z,6.90
2023-04-12T06:04:42.026Z,7.00
2023-04-12T06:07:17.750Z,7.00
2023-04-12T06:09:45.369Z,7.10
2023-04-12T06:12:12.767Z,7.10
2023-04-12T06:14:40.074Z,7.10
2023-04-12T06:17:07.384Z,7.10
2023-04-12T06:19:34.708Z,7.20
2023-04-12T06:22:02.496Z,7.20
2023-04-12T06:24:29.783Z,7.60
2023-04-12T06:26:57.338Z,7.40
2023-04-12T06:29:24.647Z,7.40
2023-04-12T06:31:53.221Z,7.50
2023-04-12T06:34:20.632Z,7.60
2023-04-12T06:36:48.043Z,7.60
2023-04-12T06:39:16.383Z,7.70
2023-04-12T06:41:43.916Z,7.70
2023-04-12T06:44:11.346Z,7.50
2023-04-12T06:46:39.018Z,7.80
2023-04-12T06:49:06.533Z,7.80
2023-04-12T06:51:35.498Z,7.80
2023-04-12T06:54:06.191Z,7.80
2023-04-12T06:56:33.574Z,7.90
2023-04-12T06:59:01.035Z,7.90
2023-04-12T07:01:28.563Z,8.00
2023-04-12T07:03:56.273Z,8.00
2023-04-12T07:06:26.093Z,8.00
2023-04-12T07:08:54.329Z,8.10
2023-04-12T07:11:25.435Z,7.10
2023-04-12T07:13:52.895Z,8.30
2023-04-12T07:16:20.626Z,8.20
2023-04-12T07:18:48.515Z,8.20
2023-04-12T07:21:18.227Z,8.30
2023-04-12T07:23:47.070Z,8.30
2023-04-12T07:26:14.560Z,8.30
2023-04-12T07:28:41.893Z,8.40
2023-04-12T07:31:09.350Z,8.40
2023-04-12T07:33:39.384Z,8.60
2023-04-12T07:36:09.524Z,8.60
2023-04-12T07:38:37.166Z,8.50
2023-04-12T07:41:04.888Z,8.80
2023-04-12T07:43:32.258Z,8.90
2023-04-12T07:45:59.846Z,8.90
2023-04-12T07:48:27.310Z,8.90
2023-04-12T07:50:54.970Z,8.90
2023-04-12T07:53:29.464Z,9.00
2023-04-12T07:55:57.072Z,9.00
2023-04-12T07:58:25.593Z,9.00
2023-04-12T08:00:54.144Z,8.90
2023-04-12T08:03:21.611Z,9.00
2023-04-12T08:05:53.723Z,8.70
2023-04-12T08:08:23.018Z,9.00
2023-04-12T08:10:51.606Z,9.10
2023-04-12T08:13:19.934Z,9.10
2023-04-12T08:15:50.748Z,9.10
2023-04-12T08:18:18.540Z,9.20
2023-04-12T08:20:45.988Z,9.20
2023-04-12T08:23:13.684Z,9.20
2023-04-12T08:25:41.139Z,9.20
2023-04-12T08:28:09.608Z,9.20
2023-04-12T08:30:37.275Z,9.30
2023-04-12T08:33:04.768Z,9.00
2023-04-12T08:35:33.206Z,9.30
2023-04-12T08:38:06.896Z,9.40
2023-04-12T08:40:34.433Z,9.30
2023-04-12T08:43:03.950Z,9.40
2023-04-12T08:45:34.347Z,9.40
2023-04-12T08:48:04.150Z,9.40
2023-04-12T08:50:32.357Z,9.50
2023-04-12T08:53:00.123Z,9.50
2023-04-12T08:55:27.492Z,9.50
2023-04-12T08:57:58.634Z,9.60
2023-04-12T09:00:27.138Z,9.70
2023-04-12T09:02:54.836Z,9.80
2023-04-12T09:05:31.134Z,9.90
2023-04-12T09:07:59.007Z,10.10
2023-04-12T09:10:37.997Z,10.20
2023-04-12T09:13:07.319Z,10.40
2023-04-12T09:15:35.085Z,10.40
2023-04-12T09:18:11.488Z,10.30
2023-04-12T09:20:39.271Z,10.20
2023-04-12T09:23:22.563Z,9.90
2023-04-12T09:25:52.913Z,9.60
2023-04-12T09:28:28.074Z,9.50
2023-04-12T09:30:59.475Z,9.30
2023-04-12T09:33:38.297Z,9.00
2023-04-12T09:36:09.361Z,9.10
2023-04-12T09:38:39.484Z,9.10
2023-04-12T09:41:26.722Z,9.00
2023-04-12T09:43:55.314Z,9.10
2023-04-12T09:46:23.423Z,9.20
2023-04-12T09:48:53.540Z,9.20
2023-04-12T09:51:32.833Z,9.20
2023-04-12T09:54:03.822Z,9.20
2023-04-12T09:56:36.726Z,9.20
2023-04-12T09:59:06.053Z,9.20
2023-04-12T10:01:39.467Z,9.30
2023-04-12T10:04:08.100Z,9.30
2023-04-12T10:06:37.297Z,9.40
2023-04-12T10:09:06.635Z,9.40
2023-04-12T10:11:34.452Z,9.40
2023-04-12T10:14:07.121Z,9.60
2023-04-12T10:16:35.176Z,9.70
2023-04-12T10:19:04.140Z,9.90
2023-04-12T10:21:32.051Z,9.90
2023-04-12T10:24:00.716Z,10.00
2023-04-12T10:26:28.212Z,10.70
2023-04-12T10:29:24.354Z,10.20
2023-04-12T10:31:52.596Z,10.20
2023-04-12T10:34:27.708Z,10.20
2023-04-12T10:36:56.489Z,10.30
2023-04-12T10:39:44.700Z,10.40
2023-04-12T10:42:23.507Z,10.40
2023-04-12T10:45:19.994Z,10.40
2023-04-12T10:47:50.737Z,10.40
2023-04-12T10:50:27.142Z,10.50
2023-04-12T10:53:13.032Z,10.40
2023-04-12T10:55:41.367Z,10.40
2023-04-12T10:58:09.320Z,10.50
2023-04-12T11:01:10.117Z,10.50
2023-04-12T11:03:37.790Z,10.60
2023-04-12T11:06:20.052Z,10.60
2023-04-12T11:08:56.619Z,10.60
2023-04-12T11:11:27.141Z,10.60
2023-04-12T11:13:59.324Z,10.90
2023-04-12T11:16:26.985Z,10.70
2023-04-12T11:18:55.218Z,10.70
2023-04-12T11:21:22.929Z,10.80
2023-04-12T11:23:53.911Z,10.80
2023-04-12T11:26:22.225Z,10.80
2023-04-12T11:28:53.169Z,10.80
2023-04-12T11:31:21.883Z,10.90
2023-04-12T11:33:49.396Z,10.90
2023-04-12T11:36:17.920Z,10.80
2023-04-12T11:38:47.371Z,10.90
2023-04-12T11:41:15.533Z,10.90
2023-04-12T11:43:42.994Z,11.00
2023-04-12T11:46:10.723Z,11.00
2023-04-12T11:48:40.862Z,11.00
2023-04-12T11:51:21.428Z,11.10
2023-04-12T11:53:53.508Z,11.10
2023-04-12T11:56:21.196Z,11.20
2023-04-12T11:58:48.758Z,11.50
2023-04-12T12:01:17.205Z,11.20
2023-04-12T12:03:45.448Z,11.10
2023-04-12T12:06:14.029Z,11.10
2023-04-12T12:08:41.781Z,10.90
2023-04-12T12:11:09.281Z,11.20
2023-04-12T12:13:55.380Z,11.30
2023-04-12T12:16:30.353Z,11.40
2023-04-12T12:18:58.142Z,11.60
2023-04-12T12:21:27.205Z,11.70
2023-04-12T12:23:56.742Z,11.70
2023-04-12T12:26:31.039Z,11.70
2023-04-12T12:29:00.585Z,11.60
2023-04-12T12:31:28.851Z,11.10
2023-04-12T12:33:58.259Z,11.50
2023-04-12T12:36:37.569Z,11.40
2023-04-12T12:39:07.455Z,10.90
2023-04-12T12:41:35.403Z,10.60
2023-04-12T12:44:03.104Z,10.10
2023-04-12T12:46:44.624Z,9.80
2023-04-12T12:49:16.309Z,9.70
2023-04-12T12:51:44.284Z,8.20
2023-04-12T12:54:11.594Z,9.50
2023-04-12T12:56:38.990Z,9.40
2023-04-12T12:59:06.634Z,9.40
2023-04-12T13:01:34.470Z,9.40
2023-04-12T13:04:02.374Z,9.50
2023-04-12T13:06:29.921Z,9.90
2023-04-12T13:08:57.627Z,9.70
2023-04-12T13:11:25.270Z,9.90
2023-04-12T13:13:52.601Z,10.10
2023-04-12T13:16:24.579Z,10.10
2023-04-12T13:18:53.475Z,10.20
2023-04-12T13:21:21.242Z,10.40
2023-04-12T13:23:48.680Z,10.60
2023-04-12T13:26:16.656Z,10.70
2023-04-12T13:28:44.109Z,10.80
2023-04-12T13:31:11.468Z,10.90
2023-04-12T13:33:38.817Z,10.80
2023-04-12T13:36:06.488Z,10.90
2023-04-12T13:38:33.962Z,10.90
2023-04-12T13:41:01.299Z,10.90
2023-04-12T13:43:28.632Z,10.90
2023-04-12T13:45:56.066Z,10.60
2023-04-12T13:48:24.258Z,10.50
2023-04-12T13:50:53.624Z,10.20
2023-04-12T13:53:22.830Z,9.90
2023-04-12T13:55:50.378Z,9.80
2023-04-12T13:58:19.043Z,9.60
2023-04-12T14:00:46.380Z,9.50
2023-04-12T14:03:13.905Z,9.30
2023-04-12T14:05:41.224Z,8.80
2023-04-12T14:08:08.521Z,9.20
2023-04-12T14:10:35.982Z,9.40
2023-04-12T14:13:03.671Z,9.50
2023-04-12T14:15:30.980Z,9.30
2023-04-12T14:17:58.408Z,9.20
2023-04-12T14:20:25.810Z,9.10
2023-04-12T14:22:53.084Z,8.90
2023-04-12T14:25:21.572Z,8.80
2023-04-12T14:27:48.873Z,8.10
2023-04-12T14:30:18.874Z,8.40
2023-04-12T14:32:47.611Z,8.60
2023-04-12T14:35:15.460Z,8.60
2023-04-12T14:37:42.904Z,8.60
2023-04-12T14:40:10.524Z,8.60
2023-04-12T14:42:37.883Z,8.60
2023-04-12T14:45:08.071Z,8.60
2023-04-12T14:47:35.906Z,8.60
2023-04-12T14:50:03.918Z,8.60
2023-04-12T14:52:31.401Z,8.60
2023-04-12T14:54:58.726Z,8.60
2023-04-12T14:57:26.017Z,8.60
2023-04-12T14:59:53.612Z,8.60
2023-04-12T15:02:23.965Z,8.70
2023-04-12T15:04:52.182Z,8.70
2023-04-12T15:07:19.557Z,8.80
2023-04-12T15:09:47.074Z,8.80
2023-04-12T15:12:14.489Z,8.80
2023-04-12T15:14:41.856Z,8.70
2023-04-12T15:17:10.790Z,8.70
2023-04-12T15:19:38.091Z,8.70
2023-04-12T15:22:05.561Z,8.60
2023-04-12T15:24:33.976Z,8.60
2023-04-12T15:27:02.769Z,8.60
2023-04-12T15:29:31.823Z,8.50
2023-04-12T15:31:59.194Z,8.50
2023-04-12T15:34:28.710Z,8.40
2023-04-12T15:36:56.208Z,8.40
2023-04-12T15:39:23.601Z,8.40
2023-04-12T15:41:51.129Z,8.30
2023-04-12T15:44:18.544Z,8.30
2023-04-12T15:46:53.318Z,8.30
2023-04-12T15:49:27.254Z,8.40
2023-04-12T15:51:57.207Z,8.40
2023-04-12T15:54:24.654Z,8.30
2023-04-12T15:56:52.976Z,8.20
2023-04-12T15:59:20.730Z,8.20
2023-04-12T16:01:52.003Z,8.10
2023-04-12T16:04:19.565Z,8.10
2023-04-12T16:06:47.133Z,8.80
2023-04-12T16:09:14.896Z,7.70
2023-04-12T16:11:43.776Z,7.70
2023-04-12T16:14:11.297Z,7.80
2023-04-12T16:16:40.630Z,7.80
2023-04-12T16:19:08.449Z,7.80
2023-04-12T16:21:36.587Z,7.70
2023-04-12T16:24:04.896Z,7.80
2023-04-12T16:26:32.424Z,7.90
2023-04-12T16:29:01.357Z,8.20
2023-04-12T16:31:29.673Z,8.00
2023-04-12T16:33:57.281Z,8.10
2023-04-12T16:36:25.612Z,8.20
2023-04-12T16:38:55.341Z,8.20
2023-04-12T16:41:23.342Z,8.20
2023-04-12T16:43:53.978Z,8.50
2023-04-12T16:46:21.491Z,8.10
2023-04-12T16:48:48.822Z,7.70
2023-04-12T16:51:16.694Z,8.10
2023-04-12T16:53:44.365Z,8.00
2023-04-12T16:56:11.990Z,8.20
2023-04-12T16:58:40.975Z,8.20
2023-04-12T17:01:08.381Z,8.20
2023-04-12T17:03:35.841Z,8.30
2023-04-12T17:06:04.253Z,8.20
2023-04-12T17:08:31.639Z,8.20
2023-04-12T17:10:59.344Z,8.20
2023-04-12T17:13:26.751Z,8.20
2023-04-12T17:15:54.554Z,8.30
2023-04-12T17:18:22.037Z,8.20
2023-04-12T17:20:49.486Z,8.40
2023-04-12T17:23:16.796Z,8.80
2023-04-12T17:25:45.994Z,8.40
2023-04-12T17:28:13.413Z,8.50
2023-04-12T17:30:41.339Z,8.90
2023-04-12T17:33:09.766Z,8.60
2023-04-12T17:35:37.533Z,8.80
2023-04-12T17:38:05.065Z,8.80
2023-04-12T17:40:32.421Z,8.40
2023-04-12T17:43:00.382Z,8.70
2023-04-12T17:45:28.223Z,8.70
2023-04-12T17:47:55.697Z,8.60
2023-04-12T17:50:23.126Z,8.60
2023-04-12T17:52:50.578Z,8.60
2023-04-12T17:55:23.260Z,8.90
2023-04-12T17:57:50.810Z,8.50
2023-04-12T18:00:19.127Z,8.40
2023-04-12T18:02:46.782Z,8.60
2023-04-12T18:05:14.289Z,8.50
2023-04-12T18:07:43.573Z,8.40
2023-04-12T18:10:13.079Z,8.50
2023-04-12T18:12:41.004Z,8.50
2023-04-12T18:15:09.037Z,8.50
2023-04-12T18:17:37.227Z,8.50
2023-04-12T18:20:10.240Z,8.50
2023-04-12T18:22:38.892Z,8.70
2023-04-12T18:25:10.352Z,8.50
2023-04-12T18:27:38.341Z,8.60
2023-04-12T18:30:06.722Z,8.60
2023-04-12T18:32:34.338Z,8.60
2023-04-12T18:35:03.561Z,8.60
2023-04-12T18:37:31.287Z,8.60
2023-04-12T18:39:58.778Z,8.50
2023-04-12T18:42:26.421Z,8.50
2023-04-12T18:44:55.013Z,8.60
2023-04-12T18:47:26.131Z,9.80
2023-04-12T18:50:05.165Z,8.50
2023-04-12T18:52:53.252Z,8.50
2023-04-12T18:55:23.681Z,8.40
2023-04-12T18:57:51.574Z,8.30
2023-04-12T19:00:19.764Z,8.20
2023-04-12T19:02:47.355Z,8.20
2023-04-12T19:05:15.509Z,8.20
2023-04-12T19:07:42.859Z,8.20
2023-04-12T19:10:12.623Z,8.50
2023-04-12T19:12:40.823Z,7.90
2023-04-12T19:15:09.228Z,8.10
2023-04-12T19:17:38.973Z,8.10
2023-04-12T19:20:11.072Z,8.10
2023-04-12T19:22:38.692Z,8.00
2023-04-12T19:25:07.471Z,8.10
2023-04-12T19:27:35.384Z,8.00
2023-04-12T19:30:03.788Z,8.00
2023-04-12T19:32:31.370Z,8.00
2023-04-12T19:34:59.489Z,8.00
2023-04-12T19:37:28.666Z,8.00
2023-04-12T19:39:56.458Z,8.00
2023-04-12T19:42:25.077Z,7.00
2023-04-12T19:44:52.816Z,7.90
2023-04-12T19:47:20.914Z,7.90
2023-04-12T19:49:49.406Z,7.90
2023-04-12T19:52:20.270Z,7.90
2023-04-12T19:54:47.714Z,7.90
2023-04-12T19:57:15.440Z,7.90
2023-04-12T19:59:43.322Z,7.90
2023-04-12T20:02:11.013Z,7.90
2023-04-12T20:04:40.057Z,7.80
2023-04-12T20:07:08.429Z,7.80
2023-04-12T20:09:36.177Z,7.80
2023-04-12T20:12:03.905Z,7.80
2023-04-12T20:14:32.487Z,8.70
2023-04-12T20:17:00.624Z,6.70
2023-04-12T20:19:28.248Z,7.80
2023-04-12T20:22:02.536Z,7.80
2023-04-12T20:24:38.017Z,7.80
2023-04-12T20:27:08.165Z,7.80
2023-04-12T20:32:49.448Z,7.80
2023-04-12T20:35:17.640Z,7.80
2023-04-12T20:37:46.820Z,7.80
2023-04-12T20:40:14.301Z,8.20
2023-04-12T20:42:44.427Z,7.80
2023-04-12T20:45:13.273Z,7.80
2023-04-12T20:47:40.815Z,7.80
2023-04-12T20:50:09.101Z,7.80
2023-04-12T20:52:36.537Z,7.80
2023-04-12T20:55:05.941Z,7.70
2023-04-12T20:57:34.798Z,7.80
2023-04-12T21:00:12.252Z,7.80
2023-04-12T21:02:40.705Z,7.90
2023-04-12T21:05:08.372Z,7.80
2023-04-12T21:07:36.744Z,7.90
2023-04-12T21:18:34.377Z,7.80
2023-04-12T21:21:02.332Z,7.70
2023-04-12T21:23:32.871Z,7.80
2023-04-12T21:26:00.348Z,7.80
2023-04-12T21:28:30.517Z,7.80
2023-04-12T21:30:58.403Z,7.80
2023-04-12T21:33:26.231Z,7.70
2023-04-12T21:35:54.985Z,7.80
2023-04-12T21:38:23.481Z,7.70
2023-04-12T21:40:51.615Z,7.70
2023-04-12T21:43:19.032Z,7.70
2023-04-12T21:45:46.688Z,7.70
2023-04-12T21:48:14.656Z,7.70
2023-04-12T21:50:42.222Z,7.80
2023-04-12T21:53:09.541Z,7.70
2023-04-12T21:55:36.963Z,7.70
2023-04-12T21:58:04.294Z,7.70
2023-04-12T22:00:32.326Z,7.70
2023-04-12T22:03:02.777Z,7.70
2023-04-12T22:05:30.299Z,7.70
2023-04-12T22:07:57.904Z,7.70
2023-04-12T22:10:25.776Z,7.70
2023-04-12T22:12:53.984Z,7.70
2023-04-12T22:15:21.293Z,8.10
2023-04-12T22:17:49.201Z,7.70
2023-04-12T22:20:16.697Z,7.70
2023-04-12T22:22:44.163Z,7.70
2023-04-12T22:25:15.154Z,7.70
2023-04-12T22:27:46.448Z,7.70
2023-04-12T22:30:14.614Z,7.70
2023-04-12T22:32:42.067Z,7.70
2023-04-12T22:35:10.295Z,8.70
2023-04-12T22:37:39.164Z,7.70
2023-04-12T22:40:11.790Z,7.70
2023-04-12T22:42:46.409Z,7.70
2023-04-12T22:45:17.757Z,7.70
2023-04-12T22:47:51.416Z,7.70
2023-04-12T22:50:19.704Z,7.70
2023-04-12T22:52:49.842Z,7.70
2023-04-12T22:55:18.238Z,7.60
2023-04-12T22:57:47.067Z,7.70
2023-04-12T23:00:17.031Z,7.70
2023-04-12T23:02:48.837Z,7.70
2023-04-12T23:05:23.840Z,7.70
2023-04-12T23:08:23.011Z,7.60
2023-04-12T23:11:11.417Z,7.70
2023-04-12T23:13:42.038Z,7.70
2023-04-12T23:16:09.416Z,7.70
2023-04-12T23:18:37.880Z,7.70
2023-04-12T23:21:49.239Z,7.70
2023-04-12T23:24:19.824Z,7.70
2023-04-12T23:26:47.924Z,7.60
2023-04-12T23:29:15.264Z,7.70
2023-04-12T23:31:42.715Z,7.70
2023-04-12T23:34:22.315Z,7.70
2023-04-12T23:37:29.395Z,7.70
2023-04-12T23:40:21.395Z,7.70
2023-04-12T23:42:50.764Z,7.80
2023-04-12T23:55:33.650Z,7.80
2023-04-12T23:58:01.010Z,7.90
